x

Ne Bahamas - 350 Nm Ene Of Nassau, Bahamas (41047) Wave Buoy

11:50am - Thu 24th Jul 2014 All times are UTC.

  • Sig Wave height 3.6ft
  • Swell Direction
  • Peak Period 6s
  • Average Period 5s
  • Wind
    16mph, 18mph gusts
  • Sea Temp 84°f
  • Air Temp 83°f
  • Sea Pressure 1020.1mb

More Historic Weather Station data

Upgrade to MSW Pro to gain access to the past 30 days of data for over 8000 Wavebouys and Weather Stations around the globe.

Join Pro

Comparision Forecast

View Surf forecast
   
Thu 07/24 11:50am 3.5ft 6s 5s 16 18 mph 1020.1mb 84f 83f
10:50am 3.5ft 7s 5s 13 16 mph 1019.9mb 84f 83f
9:50am 3.5ft 7s 5s 13 16 mph 1019.3mb 84f 83f
8:50am 3.5ft 7s 5s 16 18 mph 1018.6mb 84f 82f
7:50am 3.5ft 7s 5s 13 16 mph 1018.7mb 84f 82f
6:50am 3.5ft 6s 5s 13 16 mph 1018.9mb 84f 83f
5:50am 3.5ft 6s 5s 13 16 mph 1019.5mb 84f 83f
4:50am 3.5ft 6s 5s 13 18 mph 1020.1mb 84f 83f
3:50am 3.5ft 6s 5s 11 25 mph 1020.8mb 84f 83f
2:50am 3.5ft 7s 5s 9 11 mph 1021.2mb 84f 83f
1:50am 3ft 6s 5s 11 13 mph 1021.2mb 84f 83f
12:50am 3.5ft 6s 5s 9 11 mph 1021mb 85f 83f
Wed 07/23 11:50pm 3.5ft 6s 5s 9 11 mph 1020.7mb 85f 83f
10:50pm 3.5ft 6s 5s 9 11 mph 1020.6mb 85f 83f
9:50pm 3.5ft 8s 5s 9 11 mph 1020.4mb 85f 83f
8:50pm 3.5ft 6s 5s 9 13 mph 1020.6mb 85f 83f
7:50pm 3.5ft 5s 5s 11 13 mph 1020.4mb 85f 83f
6:50pm 3.5ft 6s 5s 13 16 mph 1020.6mb 85f 83f
5:50pm 3.5ft 7s 5s 13 16 mph 1020.9mb 85f 83f
4:50pm 3.5ft 6s 5s 16 20 mph 1021mb 84f 83f
3:50pm 3.5ft 6s 5s 16 18 mph 1021.3mb 84f 83f
2:50pm 3.5ft 6s 5s 16 18 mph 1021.8mb 84f 83f
1:50pm 3.5ft 6s 5s 16 18 mph 1021.5mb 84f 83f
12:50pm 3.5ft 6s 5s 13 16 mph 1021.8mb 84f 82f
11:50am 3.5ft 7s 5s 16 18 mph 1021.8mb 84f 83f
10:50am 3.5ft 6s 5s 13 16 mph 1021.6mb 84f 83f
9:50am 3.5ft 6s 5s 13 16 mph 1021.3mb 84f 82f
8:50am 3.5ft 7s 5s 16 18 mph 1020.8mb 84f 82f
7:50am 3.5ft 8s 5s 11 13 mph 1020.9mb 84f 83f
6:50am 3.5ft 6s 5s 11 13 mph 1021mb 84f 82f
5:50am 3.5ft 6s 5s 9 11 mph 1021.6mb 84f 83f
4:50am 3.5ft 6s 5s 11 13 mph 1022.2mb 84f 83f
3:50am 3.5ft 6s 5s 9 11 mph 1022.7mb 84f 83f
2:50am 3.5ft 6s 5s 11 13 mph 1022.3mb 84f 83f
1:50am 3.5ft 6s 5s 11 13 mph 1022.4mb 84f 83f
12:50am 3.5ft 6s 5s 9 11 mph 1022.3mb 84f 83f
Tue 07/22 11:50pm 3.5ft 7s 5s 9 11 mph 1021.7mb 85f 83f
10:50pm 3.5ft 6s 5s 11 13 mph 1021.4mb 85f 83f
9:50pm 3.5ft 6s 5s 11 13 mph 1021mb 85f 83f
8:50pm 3.5ft 7s 5s 13 16 mph 1020.9mb 85f 84f
7:50pm 3.5ft 5s 5s 13 18 mph 1021mb 85f 84f
6:50pm 3.5ft 5s 5s 13 16 mph 1021.2mb 85f 84f
5:50pm 3.5ft 6s 5s 13 16 mph 1021.5mb 85f 83f
4:50pm 3.5ft 6s 5s 13 18 mph 1021.6mb 85f 83f
3:50pm 3.5ft 6s 5s 16 18 mph 1022mb 84f 83f
2:50pm 3.5ft 7s 5s 16 18 mph 1022.1mb 84f 83f
1:50pm 3.5ft 7s 5s 16 18 mph 1021.7mb 84f 83f
12:50pm 3.5ft 6s 5s 16 18 mph 1021.6mb 84f 83f
11:50am 3.5ft 8s 5s 13 16 mph 1021.5mb 84f 83f
10:50am 3.5ft 6s 5s 13 16 mph 1021.4mb 84f 83f
9:50am 3.5ft 7s 5s 11 13 mph 1020.9mb 84f 82f
8:50am 3.5ft 6s 5s 11 13 mph 1020.6mb 84f 82f
7:50am 3.5ft 7s 5s 11 13 mph 1020.5mb 84f 82f
6:50am 3.5ft 6s 5s 11 13 mph 1020.7mb 84f 83f
5:50am 3.5ft 9s 5s 13 16 mph 1020.7mb 84f 83f
4:50am 3.5ft 7s 5s 11 13 mph 1021.5mb 84f 83f
3:50am 3.5ft 6s 5s 13 16 mph 1021.8mb 84f 83f
2:50am 3.5ft 7s 5s 11 13 mph 1022.1mb 84f 83f
1:50am 3.5ft 7s 5s 11 13 mph 1022.1mb 84f 83f
12:50am 4ft 8s 5s 13 16 mph 1021.6mb 84f 83f
Mon 07/21 11:50pm 4ft 6s 5s 11 13 mph 1021.2mb 85f 83f
9:50pm 3.5ft 6s 5s 11 13 mph 1020.6mb 85f 84f
8:50pm 4ft 7s 5s 11 13 mph 1020.5mb 85f 83f
7:50pm 4ft 6s 5s 9 11 mph 1020.6mb 85f 83f
6:50pm 4.5ft 7s 5s 13 16 mph 1021.1mb 85f 83f
5:50pm 4ft 6s 5s 13 16 mph 1021.4mb 84f 84f
4:50pm 4ft 8s 5s 13 16 mph 1021.5mb 84f 83f
3:50pm 4ft 8s 5s 16 18 mph 1021.4mb 84f 83f
2:50pm 4ft 7s 5s 13 18 mph 1021.5mb 84f 83f
1:50pm 4ft 8s 5s 13 18 mph 1021.4mb 84f 83f
12:50pm 4ft 6s 5s 16 18 mph 1021.3mb 84f 83f
11:50am 4ft 7s 5s 13 16 mph 1021.2mb 84f 83f
10:50am 4ft 7s 5s 13 16 mph 1020.9mb 84f 83f
9:50am 4ft 7s 5s 13 18 mph 1020.3mb 84f 82f
8:50am 3.5ft 8s 5s 13 16 mph 1020.1mb 84f 83f
7:50am 3.5ft 7s 5s 13 16 mph 1020.2mb 84f 83f
6:50am 3.5ft 6s 5s 13 16 mph 1020.3mb 84f 82f
5:50am 4ft 8s 5s 13 16 mph 1020.8mb 84f 83f
4:50am 4ft 7s 5s 13 18 mph 1021.1mb 84f 83f
3:50am 3.5ft 8s 5s 13 16 mph 1021.4mb 84f 83f
2:50am 4ft 7s 5s 13 16 mph 1021.4mb 84f 83f
1:50am 4.5ft 8s 5s 11 13 mph 1021.2mb 84f 83f
12:50am 4.5ft 7s 5s 11 13 mph 1020.6mb 84f 83f
Sun 07/20 11:50pm 4.5ft 7s 5s 11 13 mph 1020.1mb 84f 83f
10:50pm 4.5ft 8s 5s 9 11 mph 1020.2mb 85f 84f
9:50pm 4.5ft 8s 6s 9 13 mph 1020mb 85f 83f
8:50pm 4.5ft 8s 5s 11 13 mph 1019.9mb 85f 83f
7:50pm 4.5ft 6s 5s 13 16 mph 1020.1mb 85f 83f
6:50pm 4.5ft 6s 5s 13 16 mph 1020.7mb 85f 83f
5:50pm 4.5ft 8s 5s 13 18 mph 1021mb 84f 83f
4:50pm 4.5ft 8s 5s 13 18 mph 1021.2mb 84f 83f
3:50pm 4.5ft 7s 5s 16 18 mph 1021.5mb 84f 83f
2:50pm 4.5ft 8s 5s 16 18 mph 1021.1mb 84f 83f
1:50pm 4.5ft 8s 5s 16 20 mph 1021mb 84f 83f